Time;durP1;ratioP1;P1;durP2;ratioP2;P2;SDS_P1;SDS_P2;PMS_P1;PMS_P2;Temp;Humidity;BMP_temperature;BMP_pressure;BME280_temperature;BME280_humidity;BME280_pressure;Samples;Min_cycle;Max_cycle;Signal;HPM_P1;HPM_P2
2023/12/24 00:02:59;;;;;;;2.15;0.85;;;;;;;13.13;87.73;99975.16;8276405;28;20216;-56
2023/12/24 00:07:00;;;;;;;7.32;1.20;;;;;;;13.04;88.37;99968.91;8273479;28;20219;-56
2023/12/24 00:11:00;;;;;;;2.70;0.70;;;;;;;13.03;88.60;99969.06;8274067;28;20038;-56
2023/12/24 00:15:03;;;;;;;1.90;0.68;;;;;;;13.02;89.26;99981.78;8274315;28;20054;-56
2023/12/24 00:19:04;;;;;;;3.05;0.68;;;;;;;13.00;89.72;99985.69;8281876;28;20064;-56
2023/12/24 00:23:07;;;;;;;1.40;0.50;;;;;;;13.06;89.42;99993.16;8276902;28;20069;-55
2023/12/24 00:27:07;;;;;;;2.22;0.65;;;;;;;13.05;89.80;99972.47;8281129;28;20121;-56
2023/12/24 00:31:08;;;;;;;3.15;0.40;;;;;;;12.99;89.88;99984.81;8273784;28;20037;-55
2023/12/24 00:35:10;;;;;;;3.28;0.50;;;;;;;13.04;89.09;99987.88;8274137;28;20054;-55
2023/12/24 00:39:12;;;;;;;0.98;0.35;;;;;;;13.03;89.52;100001.63;8277515;28;20471;-55
2023/12/24 00:43:13;;;;;;;1.13;0.30;;;;;;;13.19;87.98;99979.91;8273333;28;20137;-56
2023/12/24 00:47:13;;;;;;;0.60;0.35;;;;;;;13.14;88.66;99976.84;8273818;28;20042;-56
2023/12/24 00:51:14;;;;;;;1.30;0.55;;;;;;;13.20;88.27;99966.16;8273377;28;20042;-57
2023/12/24 00:55:14;;;;;;;0.88;0.40;;;;;;;13.19;88.10;99967.19;8276409;28;20053;-57
2023/12/24 00:59:15;;;;;;;1.58;0.40;;;;;;;13.18;88.66;99964.66;8273241;28;20045;-57
2023/12/24 01:03:16;;;;;;;2.47;0.35;;;;;;;13.10;89.72;99964.63;8277455;28;20137;-57
2023/12/24 01:07:16;;;;;;;2.53;0.30;;;;;;;13.00;89.99;99958.53;8280097;28;20116;-57
2023/12/24 01:11:17;;;;;;;0.30;0.20;;;;;;;12.98;90.90;99957.81;8276242;28;20034;-57
2023/12/24 01:15:17;;;;;;;0.60;0.30;;;;;;;12.97;91.29;99953.44;8280975;28;20049;-56
2023/12/24 01:19:18;;;;;;;1.90;0.20;;;;;;;12.97;91.07;99959.72;8282059;28;20121;-54
2023/12/24 01:23:18;;;;;;;0.68;0.28;;;;;;;12.84;94.13;99970.19;8263879;28;20263;-56
2023/12/24 01:27:19;;;;;;;1.73;0.20;;;;;;;12.71;96.82;99960.84;8230134;28;20045;-54
2023/12/24 01:31:20;;;;;;;0.57;0.20;;;;;;;12.55;98.24;99979.81;8236740;28;20089;-57
2023/12/24 01:35:20;;;;;;;0.28;0.20;;;;;;;12.53;98.51;99976.44;8224417;28;20082;-55
2023/12/24 01:39:22;;;;;;;0.28;0.20;;;;;;;12.52;98.71;99980.16;8270629;28;20400;-58
2023/12/24 01:43:22;;;;;;;0.63;0.20;;;;;;;12.54;98.39;99973.56;8226729;28;20111;-56
2023/12/24 01:47:23;;;;;;;0.68;0.30;;;;;;;12.57;98.05;99973.22;8228945;28;20198;-58
2023/12/24 01:51:24;;;;;;;0.60;0.20;;;;;;;12.59;97.45;99954.91;8224975;28;20544;-57
2023/12/24 01:55:24;;;;;;;0.40;0.10;;;;;;;12.77;94.82;99935.78;8234659;28;20296;-61
2023/12/24 01:59:26;;;;;;;0.43;0.17;;;;;;;12.82;94.70;99919.84;8223971;28;20076;-56
2023/12/24 02:03:28;;;;;;;0.82;0.20;;;;;;;12.83;94.57;99900.69;8223426;28;20274;-55
2023/12/24 02:07:31;;;;;;;0.80;0.30;;;;;;;12.82;94.22;99890.88;8219132;28;20547;-57
2023/12/24 02:11:32;;;;;;;0.57;0.17;;;;;;;12.84;94.22;99872.53;8245521;28;20386;-55
2023/12/24 02:15:32;;;;;;;0.10;0.10;;;;;;;12.87;94.07;99883.03;8223984;28;20046;-56
2023/12/24 02:19:33;;;;;;;0.10;0.10;;;;;;;12.87;94.21;99871.38;8222730;28;20069;-57
2023/12/24 02:23:33;;;;;;;0.70;0.10;;;;;;;12.88;94.40;99867.63;8222507;28;20160;-56
2023/12/24 02:27:58;;;;;;;1.08;0.10;;;;;;;12.90;94.20;99871.03;8221972;28;20054;-56
2023/12/24 02:32:07;;;;;;;1.17;0.10;;;;;;;12.94;93.75;99878.66;8222849;28;20327;-56
2023/12/24 02:36:09;;;;;;;1.42;0.30;;;;;;;12.98;93.08;99854.72;8222020;28;20362;-56
2023/12/24 02:40:10;;;;;;;0.28;0.13;;;;;;;13.03;93.26;99860.53;8252016;28;20030;-62
2023/12/24 02:44:10;;;;;;;0.38;0.15;;;;;;;13.01;93.57;99857.13;8276993;28;20038;-55
2023/12/24 02:48:11;;;;;;;1.25;0.20;;;;;;;13.01;94.42;99860.69;8278661;28;20508;-59
2023/12/24 02:52:13;;;;;;;0.63;0.10;;;;;;;12.99;94.93;99864.56;8278500;28;20042;-60
2023/12/24 02:56:13;;;;;;;0.20;0.10;;;;;;;12.92;95.53;99863.53;8278097;28;20061;-61
2023/12/24 03:00:14;;;;;;;0.75;0.20;;;;;;;12.92;95.45;99852.69;8275368;28;20041;-59
2023/12/24 03:04:15;;;;;;;2.38;0.10;;;;;;;12.99;95.22;99848.28;8272942;28;20042;-57
2023/12/24 03:08:17;;;;;;;0.65;0.22;;;;;;;12.91;96.70;99843.72;8272165;28;20141;-58
2023/12/24 03:12:18;;;;;;;3.10;0.22;;;;;;;12.87;96.97;99827.97;8275552;28;20041;-58
2023/12/24 03:16:18;;;;;;;0.38;0.20;;;;;;;12.86;96.90;99826.25;8275824;28;20042;-58
2023/12/24 03:20:19;;;;;;;0.80;0.25;;;;;;;12.88;97.00;99829.66;8276020;28;20043;-58
2023/12/24 03:24:19;;;;;;;0.70;0.35;;;;;;;12.87;97.38;99817.09;8273798;28;20041;-58
2023/12/24 03:28:20;;;;;;;1.65;0.43;;;;;;;12.88;97.72;99818.78;8276292;28;20039;-58
2023/12/24 03:32:20;;;;;;;1.48;0.25;;;;;;;12.83;98.33;99815.75;8276940;28;20128;-58
2023/12/24 03:36:21;;;;;;;0.95;0.20;;;;;;;12.88;98.13;99821.50;8276484;28;20038;-58
2023/12/24 03:40:21;;;;;;;0.60;0.25;;;;;;;12.88;97.60;99802.50;8274794;28;20042;-59
2023/12/24 03:44:21;;;;;;;3.13;0.20;;;;;;;12.93;96.98;99805.56;8251340;28;20339;-55
2023/12/24 03:48:22;;;;;;;0.30;0.20;;;;;;;12.95;96.57;99789.94;8219283;28;20432;-57
2023/12/24 03:52:22;;;;;;;0.20;0.20;;;;;;;12.97;96.77;99790.63;8222043;28;20345;-55
2023/12/24 03:56:23;;;;;;;0.55;0.10;;;;;;;12.91;96.41;99791.31;8219820;28;20240;-57
2023/12/24 04:00:23;;;;;;;0.10;0.10;;;;;;;12.91;96.86;99794.03;8219671;28;20045;-55
2023/12/24 04:04:29;;;;;;;0.32;0.10;;;;;;;12.90;97.46;99801.31;8221817;28;20169;-55
2023/12/24 04:08:29;;;;;;;1.73;0.20;;;;;;;12.84;98.00;99796.56;8217180;28;20706;-55
2023/12/24 04:12:29;;;;;;;0.57;0.10;;;;;;;12.83;97.43;99788.63;8243868;28;20041;-55
2023/12/24 04:16:31;;;;;;;0.10;0.10;;;;;;;12.84;97.15;99788.44;8276105;28;20049;-57
2023/12/24 04:20:31;;;;;;;0.47;0.20;;;;;;;12.92;96.38;99782.16;8277090;28;20496;-56
2023/12/24 04:24:32;;;;;;;0.30;0.20;;;;;;;12.92;95.83;99782.16;8272985;28;20046;-57
2023/12/24 04:28:33;;;;;;;0.57;0.30;;;;;;;12.93;95.41;99773.00;8274985;28;20121;-58
2023/12/24 04:32:34;;;;;;;0.20;0.10;;;;;;;12.93;95.68;99773.84;8274844;28;20042;-58
2023/12/24 04:36:35;;;;;;;0.10;0.10;;;;;;;12.95;95.59;99776.38;8275804;28;20035;-57
2023/12/24 04:40:35;;;;;;;0.55;0.10;;;;;;;12.95;95.22;99766.38;8282294;28;20092;-58
2023/12/24 04:44:38;;;;;;;0.00;0.00;;;;;;;12.93;95.50;99754.03;8279979;28;20100;-58
2023/12/24 04:48:39;;;;;;;0.10;0.10;;;;;;;12.95;95.06;99769.09;8285825;28;20048;-57
2023/12/24 04:52:40;;;;;;;1.27;0.00;;;;;;;12.96;95.07;99750.97;8282392;28;20433;-58
2023/12/24 04:56:41;;;;;;;0.00;0.00;;;;;;;12.99;95.34;99756.03;8283416;28;20108;-56
2023/12/24 05:00:42;;;;;;;0.08;0.08;;;;;;;12.96;95.53;99740.09;8280256;28;20042;-57
2023/12/24 05:04:43;;;;;;;0.00;0.00;;;;;;;12.95;95.50;99743.81;8281924;28;20046;-58
2023/12/24 05:08:44;;;;;;;0.00;0.00;;;;;;;13.01;94.74;99726.88;8279875;28;20050;-56
2023/12/24 05:12:46;;;;;;;0.00;0.00;;;;;;;12.98;95.58;99743.47;8279745;28;20034;-57
2023/12/24 05:16:47;;;;;;;0.00;0.00;;;;;;;12.98;95.84;99732.63;8242324;28;20357;-55
2023/12/24 05:20:48;;;;;;;0.00;0.00;;;;;;;13.02;95.15;99729.41;8223962;28;20273;-56
2023/12/24 05:24:48;;;;;;;0.00;0.00;;;;;;;12.97;96.45;99725.50;8224247;28;20038;-56
2023/12/24 05:28:49;;;;;;;0.00;0.00;;;;;;;13.06;96.19;99727.22;8232406;28;20033;-57
2023/12/24 05:32:49;;;;;;;0.00;0.00;;;;;;;13.05;96.57;99736.38;8242749;28;20037;-56
2023/12/24 05:36:49;;;;;;;0.00;0.00;;;;;;;13.06;96.62;99732.63;8221823;28;20117;-56
2023/12/24 05:40:50;;;;;;;0.00;0.00;;;;;;;13.04;96.26;99727.38;8221730;28;20038;-56
2023/12/24 05:44:50;;;;;;;0.00;0.00;;;;;;;13.11;96.65;99730.22;8226666;28;20257;-56
2023/12/24 05:48:51;;;;;;;0.47;0.00;;;;;;;13.10;97.02;99720.41;8222449;28;20644;-55
2023/12/24 05:52:51;;;;;;;0.70;0.00;;;;;;;13.05;98.01;99711.97;8223418;28;20029;-57
2023/12/24 05:56:52;;;;;;;0.00;0.00;;;;;;;13.08;98.13;99725.16;8224009;28;20034;-56
2023/12/24 06:00:52;;;;;;;0.08;0.00;;;;;;;13.12;98.11;99729.22;8260872;28;20692;-55
2023/12/24 06:04:53;;;;;;;0.00;0.00;;;;;;;13.07;99.01;99728.88;8278696;28;20068;-57
2023/12/24 06:08:53;;;;;;;0.10;0.00;;;;;;;13.07;99.38;99726.19;8276426;28;20096;-57
2023/12/24 06:12:54;;;;;;;0.00;0.00;;;;;;;13.16;98.36;99725.13;8276813;28;20137;-56
2023/12/24 06:16:54;;;;;;;0.88;0.00;;;;;;;13.15;98.01;99712.59;8280059;28;20088;-57
2023/12/24 06:20:55;;;;;;;0.00;0.00;;;;;;;13.29;96.67;99719.97;8277689;28;20046;-60
2023/12/24 06:24:55;;;;;;;0.00;0.00;;;;;;;13.28;96.29;99721.00;8276862;28;20125;-58
2023/12/24 06:28:56;;;;;;;0.00;0.00;;;;;;;13.33;95.64;99710.47;8279291;28;20037;-56
2023/12/24 06:32:56;;;;;;;0.10;0.00;;;;;;;13.44;95.04;99712.75;8276641;28;20065;-56
2023/12/24 06:36:56;;;;;;;0.00;0.00;;;;;;;13.42;94.72;99704.78;8276813;28;20386;-57
2023/12/24 06:40:58;;;;;;;0.30;0.00;;;;;;;13.48;94.53;99719.56;8278885;28;20412;-57
2023/12/24 06:44:58;;;;;;;0.00;0.00;;;;;;;13.49;94.52;99721.22;8276301;28;20042;-56
2023/12/24 06:48:59;;;;;;;0.00;0.00;;;;;;;13.57;93.83;99715.72;8276768;28;20125;-56
2023/12/24 06:53:01;;;;;;;0.00;0.00;;;;;;;13.57;93.95;99726.59;8276620;28;20117;-56
2023/12/24 06:57:01;;;;;;;0.00;0.00;;;;;;;13.55;94.23;99723.22;8277585;28;20407;-58
2023/12/24 07:01:02;;;;;;;0.00;0.00;;;;;;;13.51;94.05;99708.31;8235335;28;20351;-54
2023/12/24 07:05:04;;;;;;;0.00;0.00;;;;;;;13.52;94.49;99710.00;8223292;28;20053;-56
2023/12/24 07:09:05;;;;;;;0.30;0.10;;;;;;;13.52;94.73;99710.00;8221263;28;20239;-54
2023/12/24 07:13:06;;;;;;;0.00;0.00;;;;;;;13.55;95.37;99702.31;8221818;28;20038;-54
2023/12/24 07:17:06;;;;;;;0.00;0.00;;;;;;;13.51;95.95;99708.31;8223220;28;20127;-54
2023/12/24 07:21:07;;;;;;;0.10;0.10;;;;;;;13.47;96.42;99696.09;8220942;28;20427;-54
2023/12/24 07:25:08;;;;;;;0.10;0.00;;;;;;;13.45;96.23;99692.75;8259869;28;20042;-57
2023/12/24 07:29:08;;;;;;;0.45;0.30;;;;;;;13.48;96.55;99692.41;8251131;28;20045;-55
2023/12/24 07:33:09;;;;;;;0.25;0.10;;;;;;;13.46;96.19;99689.84;8232508;28;20056;-55
2023/12/24 07:37:10;;;;;;;0.00;0.00;;;;;;;13.51;95.95;99697.47;8220256;28;20448;-56
2023/12/24 07:41:10;;;;;;;0.03;0.03;;;;;;;13.47;96.19;99701.53;8223254;28;20235;-57
2023/12/24 07:45:11;;;;;;;0.10;0.00;;;;;;;13.56;95.22;99693.19;8223315;28;20042;-56
2023/12/24 07:49:11;;;;;;;0.85;0.20;;;;;;;13.68;94.00;99697.19;8275960;28;20486;-54
2023/12/24 07:53:12;;;;;;;0.10;0.10;;;;;;;13.74;93.18;99682.88;8277202;28;20046;-57
2023/12/24 07:57:12;;;;;;;0.00;0.00;;;;;;;13.78;92.74;99686.91;8275978;28;20096;-55
2023/12/24 08:01:13;;;;;;;0.00;0.00;;;;;;;13.77;93.05;99676.22;8269656;28;20133;-55
2023/12/24 08:05:13;;;;;;;0.10;0.10;;;;;;;13.80;92.74;99686.72;8271731;28;20042;-57
2023/12/24 08:09:14;;;;;;;0.43;0.10;;;;;;;13.81;92.54;99685.69;8265364;28;20125;-55
2023/12/24 08:13:14;;;;;;;0.17;0.10;;;;;;;13.79;92.24;99685.88;8270551;28;20100;-55
2023/12/24 08:17:15;;;;;;;0.60;0.20;;;;;;;13.85;92.19;99695.19;8269436;28;20034;-56
2023/12/24 08:21:15;;;;;;;1.65;0.30;;;;;;;13.91;91.86;99696.31;8276645;28;20045;-55
2023/12/24 08:25:17;;;;;;;1.17;0.30;;;;;;;13.94;91.44;99690.53;8275936;28;20126;-55
2023/12/24 08:29:17;;;;;;;1.27;0.75;;;;;;;14.02;90.92;99696.72;8275329;28;20112;-56
2023/12/24 08:33:18;;;;;;;5.15;3.90;;;;;;;14.11;89.74;99686.63;8274911;28;20125;-55
2023/12/24 08:37:18;;;;;;;1.38;1.00;;;;;;;14.10;89.50;99674.94;8271004;28;20091;-55
2023/12/24 08:41:19;;;;;;;0.40;0.30;;;;;;;14.14;89.32;99700.72;8272896;28;20103;-55
2023/12/24 08:45:20;;;;;;;0.40;0.38;;;;;;;14.12;89.18;99701.94;8279804;28;20046;-55
2023/12/24 08:49:21;;;;;;;0.60;0.60;;;;;;;14.14;89.35;99689.84;8285544;28;20038;-56
2023/12/24 08:53:22;;;;;;;1.73;1.50;;;;;;;14.14;89.05;99700.72;8273160;28;20061;-56
2023/12/24 08:57:24;;;;;;;0.30;0.30;;;;;;;14.11;89.32;99698.34;8277383;28;20492;-55
2023/12/24 09:01:24;;;;;;;0.10;0.10;;;;;;;14.16;89.45;99686.94;8283256;28;20038;-56
2023/12/24 09:05:24;;;;;;;0.82;0.25;;;;;;;14.19;88.97;99698.28;8275856;28;20053;-56
2023/12/24 09:09:25;;;;;;;1.05;0.25;;;;;;;14.23;89.46;99704.19;8281503;28;20530;-56
2023/12/24 09:13:26;;;;;;;0.25;0.10;;;;;;;14.19;89.78;99702.88;8274936;28;20143;-56
2023/12/24 09:17:26;;;;;;;1.17;0.20;;;;;;;14.17;89.86;99700.34;8274948;28;20037;-55
2023/12/24 09:21:27;;;;;;;0.00;0.00;;;;;;;14.17;89.83;99700.34;8273464;28;20053;-55
2023/12/24 09:25:28;;;;;;;0.30;0.20;;;;;;;14.10;90.56;99698.53;8280564;28;20137;-56
2023/12/24 09:29:28;;;;;;;0.20;0.10;;;;;;;14.14;90.73;99706.16;8279690;28;20042;-55
2023/12/24 09:33:29;;;;;;;0.90;0.47;;;;;;;14.16;91.21;99712.25;8276781;28;20104;-56
2023/12/24 09:37:31;;;;;;;0.10;0.10;;;;;;;14.18;91.18;99690.31;8274041;28;20038;-55
2023/12/24 09:41:31;;;;;;;0.15;0.10;;;;;;;14.21;91.15;99706.28;8280158;28;20407;-56
2023/12/24 09:45:33;;;;;;;0.45;0.22;;;;;;;14.28;91.19;99709.97;8274185;28;20045;-57
2023/12/24 09:49:34;;;;;;;0.47;0.40;;;;;;;14.28;90.88;99713.53;8276512;28;20042;-56
2023/12/24 09:53:34;;;;;;;1.13;0.10;;;;;;;14.33;90.58;99726.59;8275046;28;20038;-56
2023/12/24 09:57:34;;;;;;;0.10;0.10;;;;;;;14.36;90.47;99732.47;8276469;28;20917;-57
2023/12/24 10:01:41;;;;;;;0.10;0.10;;;;;;;14.36;90.04;99727.03;8286179;28;20041;-56
2023/12/24 10:06:03;;;;;;;0.30;0.20;;;;;;;14.38;90.19;99735.88;8283300;28;20045;-55
2023/12/24 10:10:07;;;;;;;0.57;0.10;;;;;;;14.39;90.20;99720.41;8274510;28;20049;-56
2023/12/24 10:14:07;;;;;;;0.32;0.10;;;;;;;14.37;90.48;99706.16;8274649;28;20037;-54
2023/12/24 10:18:17;;;;;;;0.20;0.10;;;;;;;14.46;90.30;99716.78;8277035;28;20046;-55
2023/12/24 10:22:23;;;;;;;0.30;0.10;;;;;;;14.42;90.66;99692.84;8277641;28;20172;-56
2023/12/24 10:26:26;;;;;;;0.93;0.20;;;;;;;14.40;90.86;99690.31;8274871;28;20046;-56
2023/12/24 10:30:26;;;;;;;0.35;0.28;;;;;;;14.42;91.15;99698.28;8271649;28;20035;-56
2023/12/24 10:34:27;;;;;;;0.10;0.10;;;;;;;14.47;91.12;99683.09;8274800;28;20034;-55
2023/12/24 10:38:27;;;;;;;1.17;0.40;;;;;;;14.52;90.83;99672.47;8269900;28;20037;-55
2023/12/24 10:42:28;;;;;;;0.20;0.20;;;;;;;14.50;91.21;99685.44;8273425;28;20503;-56
2023/12/24 10:46:29;;;;;;;0.20;0.10;;;;;;;14.57;90.94;99691.81;8269301;28;20038;-56
2023/12/24 10:50:29;;;;;;;0.10;0.10;;;;;;;14.64;90.68;99676.44;8269270;28;20495;-55
2023/12/24 10:54:30;;;;;;;0.45;0.20;;;;;;;14.62;90.84;99683.97;8278160;28;20486;-55
2023/12/24 10:58:47;;;;;;;0.40;0.20;;;;;;;14.61;90.95;99678.69;8269692;28;20033;-58
2023/12/24 11:02:49;;;;;;;0.30;0.10;;;;;;;14.74;90.42;99677.03;8277021;28;20496;-55
2023/12/24 11:06:49;;;;;;;1.65;0.28;;;;;;;14.79;90.66;99668.28;8266779;28;20061;-57
2023/12/24 11:11:03;;;;;;;0.20;0.20;;;;;;;14.81;91.02;99672.50;8282865;28;20042;-55
2023/12/24 11:15:04;;;;;;;0.28;0.20;;;;;;;14.79;90.76;99669.13;8268677;28;20113;-58
2023/12/24 11:19:06;;;;;;;0.30;0.22;;;;;;;14.79;90.80;99663.69;8272216;28;20609;-56
2023/12/24 11:27:19;;;;;;;0.40;0.40;;;;;;;14.84;90.23;99666.69;8381761;28;20145;-55
2023/12/24 11:31:25;;;;;;;0.85;0.10;;;;;;;14.75;91.69;99662.38;8354530;28;20120;-54
2023/12/24 11:35:53;;;;;;;0.32;0.10;;;;;;;14.76;91.07;99664.06;8368813;28;20051;-55
2023/12/24 11:40:15;;;;;;;0.20;0.20;;;;;;;14.83;90.69;99667.72;8358290;28;20040;-54
2023/12/24 11:44:15;;;;;;;1.00;0.30;;;;;;;14.78;90.47;99634.78;8359663;28;20049;-55
2023/12/24 11:48:16;;;;;;;0.55;0.20;;;;;;;14.74;91.37;99633.50;8359768;28;20492;-57
2023/12/24 11:52:16;;;;;;;1.23;0.47;;;;;;;14.77;91.50;99622.22;8362350;28;20034;-55
2023/12/24 11:56:18;;;;;;;0.82;0.20;;;;;;;14.83;91.16;99615.19;8359618;28;20283;-56
2023/12/24 12:00:24;;;;;;;0.75;0.25;;;;;;;14.78;90.88;99599.41;8371267;28;20119;-56
2023/12/24 12:04:26;;;;;;;0.40;0.20;;;;;;;14.86;90.99;99593.88;8380682;28;20108;-56
2023/12/24 12:08:28;;;;;;;0.17;0.17;;;;;;;14.80;92.05;99578.31;8358532;28;20143;-55
2023/12/24 12:12:28;;;;;;;0.85;0.40;;;;;;;14.73;93.41;99590.16;8364927;28;20041;-56
2023/12/24 12:16:29;;;;;;;0.30;0.20;;;;;;;14.65;94.00;99601.97;8370772;28;20041;-55
2023/12/24 12:20:31;;;;;;;0.50;0.30;;;;;;;14.74;93.46;99603.56;8376400;28;20117;-55
2023/12/24 12:24:34;;;;;;;0.80;0.30;;;;;;;14.77;92.66;99611.34;8375467;28;20083;-56
2023/12/24 12:28:36;;;;;;;0.33;0.20;;;;;;;14.79;92.69;99620.13;8380963;28;20037;-55
2023/12/24 12:32:37;;;;;;;2.60;0.20;;;;;;;14.65;94.54;99607.41;8376693;28;20041;-56
2023/12/24 12:36:37;;;;;;;1.85;1.10;;;;;;;14.49;96.09;99599.41;8360362;28;20338;-56
2023/12/24 12:40:38;;;;;;;1.38;0.40;;;;;;;14.36;98.18;99607.41;8350813;28;20045;-56
2023/12/24 12:44:38;;;;;;;1.45;0.30;;;;;;;14.29;100.00;99621.91;8341972;28;20033;-56
2023/12/24 12:48:40;;;;;;;3.15;0.20;;;;;;;14.23;100.00;99607.22;8339867;28;20041;-57
2023/12/24 12:52:41;;;;;;;2.78;0.20;;;;;;;14.19;100.00;99600.44;8347310;28;20041;-57
2023/12/24 12:56:43;;;;;;;0.30;0.20;;;;;;;14.14;100.00;99602.00;8340322;28;20161;-58
2023/12/24 13:00:43;;;;;;;0.57;0.17;;;;;;;14.10;100.00;99593.38;8347665;28;20495;-57
2023/12/24 13:04:44;;;;;;;0.10;0.10;;;;;;;14.12;100.00;99579.63;8347619;28;20079;-55
2023/12/24 13:08:44;;;;;;;14.20;5.85;;;;;;;14.17;100.00;99588.03;8335176;28;20568;-57
2023/12/24 13:12:45;;;;;;;0.70;0.40;;;;;;;14.18;100.00;99571.53;8342607;28;20458;-55
2023/12/24 13:16:47;;;;;;;0.45;0.30;;;;;;;14.22;100.00;99566.59;8340368;28;20052;-57
2023/12/24 13:20:50;;;;;;;0.13;0.10;;;;;;;14.19;100.00;99550.66;8333201;28;20041;-53
2023/12/24 13:24:53;;;;;;;0.20;0.17;;;;;;;14.19;100.00;99565.09;8334230;28;20078;-54
2023/12/24 13:28:57;;;;;;;1.23;0.32;;;;;;;14.25;100.00;99555.38;8346808;28;20040;-55
2023/12/24 13:32:59;;;;;;;0.55;0.15;;;;;;;14.34;100.00;99552.38;8341712;28;20044;-54
2023/12/24 13:36:59;;;;;;;0.40;0.20;;;;;;;14.30;100.00;99548.31;8339924;28;20041;-54
2023/12/24 13:41:00;;;;;;;0.20;0.20;;;;;;;14.35;100.00;99550.47;8336896;28;20553;-54
2023/12/24 13:45:00;;;;;;;2.72;0.45;;;;;;;14.36;100.00;99558.44;8335936;28;20040;-53
2023/12/24 13:49:01;;;;;;;1.08;0.38;;;;;;;14.42;100.00;99557.69;8341501;28;20041;-54
2023/12/24 13:53:03;;;;;;;0.20;0.20;;;;;;;14.42;100.00;99552.25;8342351;28;20083;-54
2023/12/24 13:57:04;;;;;;;0.20;0.10;;;;;;;14.49;99.33;99564.06;8337670;28;20076;-55
2023/12/24 14:01:04;;;;;;;0.10;0.10;;;;;;;14.57;98.78;99558.53;8344840;28;20057;-55
2023/12/24 14:05:06;;;;;;;1.20;0.30;;;;;;;14.64;98.86;99556.72;8339061;28;20411;-56
2023/12/24 14:09:08;;;;;;;0.17;0.17;;;;;;;14.64;99.21;99567.63;8333799;28;20048;-56
2023/12/24 14:13:10;;;;;;;0.10;0.10;;;;;;;14.73;98.64;99566.47;8333081;28;20049;-57
2023/12/24 14:17:10;;;;;;;0.20;0.10;;;;;;;14.78;98.96;99531.38;8334795;28;20057;-57
2023/12/24 14:21:10;;;;;;;0.30;0.20;;;;;;;14.93;98.09;99550.41;8335626;28;20308;-56
2023/12/24 14:25:12;;;;;;;0.50;0.30;;;;;;;15.10;96.79;99560.84;8332870;28;20583;-57
2023/12/24 14:29:13;;;;;;;0.80;0.20;;;;;;;15.08;96.11;99543.88;8323729;28;20045;-56
2023/12/24 14:33:13;;;;;;;0.10;0.10;;;;;;;15.30;94.96;99548.28;8299853;28;20064;-56
2023/12/24 14:37:14;;;;;;;1.45;0.22;;;;;;;15.31;94.76;99547.25;8319132;28;20107;-55
2023/12/24 14:41:14;;;;;;;0.35;0.20;;;;;;;15.35;94.71;99528.66;8336378;28;20064;-57
2023/12/24 14:45:15;;;;;;;0.30;0.20;;;;;;;15.33;94.54;99509.78;8331573;28;20499;-56
2023/12/24 14:49:15;;;;;;;1.67;0.28;;;;;;;15.33;94.87;99515.22;8338361;28;20079;-56
2023/12/24 14:53:15;;;;;;;0.70;0.40;;;;;;;15.39;94.01;99502.72;8338630;28;20045;-55
2023/12/24 14:57:16;;;;;;;0.60;0.30;;;;;;;15.39;93.71;99511.75;8336261;28;20107;-56
2023/12/24 15:01:16;;;;;;;1.15;0.30;;;;;;;15.45;93.26;99502.81;8339534;28;20446;-55
2023/12/24 15:05:17;;;;;;;1.00;0.52;;;;;;;15.47;93.36;99503.44;8340998;28;20041;-56
2023/12/24 15:09:17;;;;;;;0.93;0.47;;;;;;;15.51;93.40;99499.28;8330055;28;20041;-55
2023/12/24 15:13:20;;;;;;;0.98;0.50;;;;;;;15.51;92.94;99507.47;8340400;28;20499;-56
2023/12/24 15:17:21;;;;;;;1.08;0.40;;;;;;;15.42;93.35;99507.78;8343157;28;20041;-55
2023/12/24 15:21:22;;;;;;;1.35;0.40;;;;;;;15.50;92.44;99500.31;8331885;28;20120;-55
2023/12/24 15:25:23;;;;;;;2.30;0.43;;;;;;;15.59;91.74;99503.75;8332634;28;20118;-55
2023/12/24 15:29:24;;;;;;;0.77;0.38;;;;;;;15.57;91.89;99495.78;8331565;28;20045;-55
2023/12/24 15:33:24;;;;;;;2.65;0.40;;;;;;;15.54;92.33;99498.03;8336483;28;20041;-55
2023/12/24 15:37:27;;;;;;;0.80;0.32;;;;;;;15.48;92.64;99491.50;8333020;28;20056;-56
2023/12/24 15:41:28;;;;;;;0.40;0.40;;;;;;;15.49;92.61;99490.47;8332359;28;20084;-55
2023/12/24 15:45:29;;;;;;;2.05;0.30;;;;;;;15.54;91.83;99498.91;8319818;28;20123;-55
2023/12/24 15:49:30;;;;;;;1.48;0.50;;;;;;;15.51;91.85;99512.91;8334704;28;20499;-55
2023/12/24 15:53:30;;;;;;;1.30;0.40;;;;;;;15.48;92.05;99515.19;8338770;28;20063;-58
2023/12/24 15:57:32;;;;;;;1.92;0.30;;;;;;;15.52;91.75;99506.41;8340148;28;20419;-58
2023/12/24 16:01:33;;;;;;;2.55;0.40;;;;;;;15.56;91.23;99518.59;8335475;28;20064;-57
2023/12/24 16:05:33;;;;;;;3.10;0.60;;;;;;;15.51;91.90;99518.38;8305092;28;20623;-55
2023/12/24 16:09:34;;;;;;;2.65;0.40;;;;;;;15.49;91.56;99498.63;8289887;28;20247;-54
2023/12/24 16:13:35;;;;;;;1.65;0.80;;;;;;;15.51;91.65;99507.47;8287438;28;20388;-55
2023/12/24 16:17:38;;;;;;;1.67;0.68;;;;;;;15.41;92.03;99517.00;8291662;28;20106;-56
2023/12/24 16:21:40;;;;;;;1.85;0.60;;;;;;;15.41;92.17;99528.72;8290703;28;20166;-55
2023/12/24 16:25:41;;;;;;;2.58;0.65;;;;;;;15.44;92.03;99539.22;8287378;28;20041;-53
2023/12/24 16:29:41;;;;;;;1.73;0.80;;;;;;;15.47;91.75;99544.28;8299938;28;20065;-57
2023/12/24 16:33:42;;;;;;;4.15;1.10;;;;;;;15.59;91.69;99536.47;8343976;28;20404;-57
2023/12/24 16:37:45;;;;;;;5.03;1.00;;;;;;;15.54;91.57;99541.63;8288127;28;20400;-55
2023/12/24 16:41:47;;;;;;;4.68;1.17;;;;;;;15.53;92.18;99543.50;8285518;28;20044;-56
2023/12/24 16:45:48;;;;;;;3.83;1.25;;;;;;;15.51;92.41;99521.09;8288018;28;20289;-57
2023/12/24 16:49:51;;;;;;;2.50;0.73;;;;;;;15.51;92.81;99514.78;8317921;28;20120;-55
2023/12/24 16:53:52;;;;;;;4.32;0.85;;;;;;;15.57;92.46;99542.09;8288160;28;20162;-55
2023/12/24 16:57:52;;;;;;;2.95;1.13;;;;;;;15.63;91.82;99533.13;8285466;28;20304;-56
2023/12/24 17:01:53;;;;;;;3.63;1.27;;;;;;;15.57;92.27;99523.03;8287805;28;20046;-55
2023/12/24 17:05:54;;;;;;;2.67;1.00;;;;;;;15.56;92.28;99521.31;8328894;28;20041;-58
2023/12/24 17:09:55;;;;;;;4.65;1.13;;;;;;;15.54;93.22;99528.88;8307644;28;20044;-56
2023/12/24 17:13:55;;;;;;;5.00;1.30;;;;;;;15.52;93.45;99527.34;8284586;28;20124;-56
2023/12/24 17:17:56;;;;;;;5.57;1.10;;;;;;;15.54;92.62;99528.88;8287427;28;20443;-56
2023/12/24 17:21:57;;;;;;;4.93;1.58;;;;;;;15.56;91.94;99543.13;8298520;28;20045;-59
2023/12/24 17:25:58;;;;;;;9.02;1.70;;;;;;;15.59;92.19;99547.34;8296424;28;20522;-53
2023/12/24 17:29:58;;;;;;;5.03;1.60;;;;;;;15.61;92.12;99565.19;8287526;28;20360;-55
2023/12/24 17:33:59;;;;;;;6.28;1.63;;;;;;;15.47;92.82;99560.63;8285635;28;20048;-54
2023/12/24 17:38:00;;;;;;;9.50;2.10;;;;;;;15.49;93.10;99564.00;8282569;28;20029;-56
2023/12/24 17:42:01;;;;;;;6.72;1.92;;;;;;;15.46;92.80;99569.84;8284799;28;20289;-54
2023/12/24 17:46:02;;;;;;;7.68;2.10;;;;;;;15.34;93.68;99555.03;8289844;28;20131;-56
2023/12/24 17:50:04;;;;;;;9.85;2.08;;;;;;;15.34;92.76;99555.03;8286784;28;20511;-52
2023/12/24 17:54:05;;;;;;;12.65;2.53;;;;;;;15.40;92.63;99553.47;8328796;28;20045;-58
2023/12/24 17:58:06;;;;;;;10.43;1.83;;;;;;;15.28;93.69;99554.97;8338404;28;20043;-58
2023/12/24 18:02:08;;;;;;;12.00;2.25;;;;;;;15.19;94.43;99554.25;8335619;28;20049;-58
2023/12/24 18:06:08;;;;;;;18.15;2.92;;;;;;;15.15;94.45;99539.34;8339988;28;20517;-59
2023/12/24 18:10:09;;;;;;;13.20;2.22;;;;;;;15.11;94.46;99565.28;8338140;28;20431;-58
2023/12/24 18:14:11;;;;;;;13.77;2.20;;;;;;;15.18;93.36;99590.69;8335843;28;20174;-58
2023/12/24 18:18:12;;;;;;;12.77;2.30;;;;;;;15.30;91.79;99591.88;8338682;28;20047;-58
2023/12/24 18:22:13;;;;;;;9.18;2.00;;;;;;;15.26;92.81;99606.91;8325653;28;20045;-59
2023/12/24 18:26:15;;;;;;;10.18;1.70;;;;;;;15.04;94.81;99607.06;8329028;28;20103;-58
2023/12/24 18:30:15;;;;;;;10.23;2.53;;;;;;;14.93;95.84;99589.34;8332641;28;20037;-58
2023/12/24 18:34:15;;;;;;;12.82;2.65;;;;;;;14.80;97.61;99597.34;8339124;28;20083;-58
2023/12/24 18:38:16;;;;;;;13.38;2.70;;;;;;;14.68;98.46;99612.47;8341016;28;20564;-59
2023/12/24 18:42:16;;;;;;;5.82;2.08;;;;;;;14.66;98.75;99614.53;8338080;28;20510;-58
2023/12/24 18:46:17;;;;;;;9.90;2.15;;;;;;;14.74;97.67;99630.78;8337446;28;20040;-58
2023/12/24 18:50:19;;;;;;;10.57;2.30;;;;;;;14.79;96.55;99650.06;8337186;28;20037;-58
2023/12/24 18:54:19;;;;;;;9.23;3.00;;;;;;;14.88;96.02;99662.53;8337024;28;20030;-56
2023/12/24 18:58:20;;;;;;;17.40;2.40;;;;;;;14.89;95.80;99658.81;8287424;28;20099;-54